KCNO/CNO METAR and TAF weather

Enter ICAO airport designator
Station Type Date Time Source
KCNO METAR 2024/04/18 07:53 UTC NOAA

KCNO 180753Z AUTO 00000KT 10SM CLR 14/M01 A3000 RMK AO2 SLP153 T01391011 402830094 $


Station Type Date Time Source
KCNO Decoded METAR 2024/04/18 07:53 UTC NOAA

CHINO AIRPORT, CA, United States (KCNO) 33-58N 117-38W 207M
Apr 18, 2024 - 03:53 AM EDT / 2024.04.18 0753 UTC
Wind: Calm:0
Visibility: 10 mile(s):0
Sky conditions: clear
Temperature: 57.0 F (13.9 C)
Dew Point: 30.0 F (-1.1 C)
Relative Humidity: 35%
Pressure (altimeter): 30 in. Hg (1015 hPa)
ob: KCNO 180753Z AUTO 00000KT 10SM CLR 14/M01 A3000 RMK AO2 SLP153 T01391011 402830094
cycle: 8

Station Type Date Time Source
KCNO TAF UTC NOAA

Error!

Example: see airport list